Cedar Rapids, IA

1:14 AM CST on February 28, 2015 (GMT -0600)
Iowa City Municipal | Change Station
CLOSE
Current Station
Airport
Location: Iowa City,
Elevation: 666 ft
Nearby Weather Stations
Active Advisory: Wind Chill Advisory Active Notice: Record Report

Elev 666 ft 41.63 °N, 91.54 °W | Updated 22 minutes ago

Partly Cloudy
Partly Cloudy
-9 °F
Feels Like -9 °F
N
0
Wind Variable Wind from North

Today
High -- | Low -- °F
--% Chance of Precip.
Yesterday
High -- | Low -- °F
Precip. -- in
6:43 AM 5:55 PM
Waxing Gibbous, 75% visible
Pressure 30.72 in
Visibility 8.0 miles
Clouds Clear
Dew Point -13 °F
Humidity 83%
Rainfall 0.00 in
Snow Depth Not available.
UV 0 out of 12
Pollen .50 out of 12
Air Quality Not available.
Flu Activity Not available.
METAR KIOW 280652Z AUTO 00000KT 8SM CLR M23/M25 A3066 RMK AO2 SLP403 I1000 T12281250

More Conditions Fewer Conditions

Pressure 30.72 in
Visibility 8.0 miles
Clouds Clear
Dew Point -13 °F
Humidity 83%
Rainfall 0.00 in
Snow Depth Not available.
UV 0 out of 12
Pollen .50 out of 12
Air Quality Not available.
Flu Activity Not available.
METAR KIOW 280652Z AUTO 00000KT 8SM CLR M23/M25 A3066 RMK AO2 SLP403 I1000 T12281250

More Conditions Fewer Conditions

10-Day Weather Forecast

Almanac

Astronomy

Feb. 28, 2015 Rise Set
Actual Time
Civil Twilight
Nautical Twilight
Astronomical Twilight
Moon
Length of Visible Light
Length of Day
Tomorrow will be .
, % of the Moon is Illuminated

Today's Extremes

State Highs State Lows

Community

WunderPhotos

Upload Photos

1,800,979 photos uploaded!

WunderBlogs® & News

Nearby

Air Quality

  Air Quality AQ Index Pollutant
Not available.

Snow Depth

Station Depth Elevation

Earthquake Activity

City Distance Mag. Time & Date
Minimum magnitude displayed is 2.5.

Coastal Water Temperatures

Place Temperature

Nearby Weather Stations

Wind Chill Advisory
Statement as of 11:41 PM CST on February 27, 2015

... Wind Chill Advisory remains in effect until 9 am CST
Saturday...

* timing... through mid morning.

* Wind chill readings... 20 below to near 29 below.

* Temperatures... 15 below to near 20 below zero.

* Winds... southeast 5 mph or less.

* Impacts... frostbite and hypothermia may occur if precautions are
not taken.

Precautionary/preparedness actions...

A Wind Chill Advisory means that very cold air and wind will
combine to generate low wind chills... resulting in frost bite and
hypothermia if precautions are not taken. If you must venture
outdoors... dress in layers covering exposed skin. Frostbite will
occur in as few as 30 minutes in these conditions.